Aeroporto :
LOGIN :

Iscrizione | Disclaimer

   EN    FR    IT 

 










Sommario :    VFR   VFR Marginale   IFR   IFR Intensivo   IFR Molto Intensivo
Visibilità : 
Base nubi : 
>= 8 km
>= 3000ft
5 / 8 km
1000 / 3000 ft
1500m / 5 km
500 / 1000 ft
800 / 1500m
200 / 500 ft
< 800m
< 200 ft
Simboli :   Temporali  Nebbia  Neve Forte  Precipitazioni Forti  Vento > 20 kt
SIGMETs :   Varie  Temporali  Ghiacco  Turbolenza  Onda orograficha  Ceneri Vulcaniche






- Altitudine del aeroporto : 681 ft
- Codice IATA : LBA


EGNM - Leeds Bradford

ULTIMO METAR :
  • 280520Z 22009KT CAVOK 02/M00 Q1008

METARs OBSOLETI :
  • 280450Z 21006KT CAVOK 02/M00 Q1008
  • 280420Z 22009KT CAVOK 02/M01 Q1009
  • 280350Z 22007KT CAVOK 01/M01 Q1009
  • 280320Z 22008KT CAVOK 02/M00 Q1009
  • 280250Z 24008KT CAVOK 02/M00 Q1009

TAF TAF EGNM
Valido dal 28 a 06 ore il 29 a 06 ore UTC


280456Z 2806/2906 21008KT 9999 FEW020
BECMG 2809/2812 15012KT BKN005
TEMPO 2809/2823 8000 -RA
PROB30
TEMPO 2809/2814 2000 RASN BKN002
PROB30
TEMPO 2812/2817 15016G26KT
PROB40
TEMPO 2814/2818 4000 RADZ BKN004
BECMG 2817/2820 23015G25KT BKN012
BECMG 2822/2901 17016G26KT
TEMPO 2823/2906 4000 RA BKN008
PROB30
TEMPO 2904/2906 19024G38KT +RA
ATIS : +44 113 250 9696 (x2489)



MetMap, La meteo Aeronautica in un colpo d'occhio ! - Copyright ORBIFLY Dicembre 2007 - Disclaimer

ORBIFLY MET'MAP TEAM :

Programmazione e sviluppo : Alexandra Zaïnal
Concezione : Baudouin d'Aumeries
Aiuto per la programmazione : Marc-Olivier Méhu
Supporto tecnico e logistico : Manuel Goepfert
Aiuto per la traduzione : Arnaldo La Scala

Contatto : metmap@orbifly.com




FONTI E CREDITI :

   NOAA